sensor_id;sensor_type;location;lat;lon;timestamp;temperature;humidity
43987;DHT22;29650;47.378;8.300;2022-09-12T00:01:12;14.60;99.90
43987;DHT22;29650;47.378;8.300;2022-09-12T00:03:40;14.60;99.90
43987;DHT22;29650;47.378;8.300;2022-09-12T00:06:09;14.60;99.90
43987;DHT22;29650;47.378;8.300;2022-09-12T00:08:36;14.70;99.90
43987;DHT22;29650;47.378;8.300;2022-09-12T00:11:06;14.70;99.90
43987;DHT22;29650;47.378;8.300;2022-09-12T00:13:34;14.70;99.90
43987;DHT22;29650;47.378;8.300;2022-09-12T00:16:01;14.70;99.90
43987;DHT22;29650;47.378;8.300;2022-09-12T00:18:28;14.60;99.90
43987;DHT22;29650;47.378;8.300;2022-09-12T00:20:55;14.50;99.90
43987;DHT22;29650;47.378;8.300;2022-09-12T00:23:22;14.50;99.90
43987;DHT22;29650;47.378;8.300;2022-09-12T00:25:49;14.40;99.90
43987;DHT22;29650;47.378;8.300;2022-09-12T00:28:17;14.40;99.90
43987;DHT22;29650;47.378;8.300;2022-09-12T00:30:46;14.30;99.90
43987;DHT22;29650;47.378;8.300;2022-09-12T00:33:15;14.30;99.90
43987;DHT22;29650;47.378;8.300;2022-09-12T00:35:43;14.10;99.90
43987;DHT22;29650;47.378;8.300;2022-09-12T00:38:10;14.10;99.90
43987;DHT22;29650;47.378;8.300;2022-09-12T00:40:37;14.30;99.90
43987;DHT22;29650;47.378;8.300;2022-09-12T00:43:05;14.20;99.90
43987;DHT22;29650;47.378;8.300;2022-09-12T00:45:33;14.10;99.90
43987;DHT22;29650;47.378;8.300;2022-09-12T00:48:02;14.10;99.90
43987;DHT22;29650;47.378;8.300;2022-09-12T00:50:31;14.10;99.90
43987;DHT22;29650;47.378;8.300;2022-09-12T00:53:02;14.20;99.90
43987;DHT22;29650;47.378;8.300;2022-09-12T00:55:32;14.10;99.90
43987;DHT22;29650;47.378;8.300;2022-09-12T00:58:03;14.10;99.90
43987;DHT22;29650;47.378;8.300;2022-09-12T01:00:34;14.00;99.90
43987;DHT22;29650;47.378;8.300;2022-09-12T01:03:04;14.00;99.90
43987;DHT22;29650;47.378;8.300;2022-09-12T01:05:34;14.10;99.90
43987;DHT22;29650;47.378;8.300;2022-09-12T01:08:03;14.00;99.90
43987;DHT22;29650;47.378;8.300;2022-09-12T01:10:31;14.10;99.90
43987;DHT22;29650;47.378;8.300;2022-09-12T01:13:00;14.10;99.90
43987;DHT22;29650;47.378;8.300;2022-09-12T01:15:29;14.00;99.90
43987;DHT22;29650;47.378;8.300;2022-09-12T01:18:09;13.90;99.90
43987;DHT22;29650;47.378;8.300;2022-09-12T01:20:49;13.80;99.90
43987;DHT22;29650;47.378;8.300;2022-09-12T01:29:48;13.90;99.90
43987;DHT22;29650;47.378;8.300;2022-09-12T01:32:32;13.80;99.90
43987;DHT22;29650;47.378;8.300;2022-09-12T01:35:05;13.60;99.90
43987;DHT22;29650;47.378;8.300;2022-09-12T01:37:39;13.50;99.90
43987;DHT22;29650;47.378;8.300;2022-09-12T01:40:12;13.50;99.90
43987;DHT22;29650;47.378;8.300;2022-09-12T01:42:44;13.50;99.90
43987;DHT22;29650;47.378;8.300;2022-09-12T01:45:19;13.60;99.90
43987;DHT22;29650;47.378;8.300;2022-09-12T01:47:50;13.60;99.90
43987;DHT22;29650;47.378;8.300;2022-09-12T01:50:21;13.60;99.90
43987;DHT22;29650;47.378;8.300;2022-09-12T01:52:53;13.60;99.90
43987;DHT22;29650;47.378;8.300;2022-09-12T01:55:25;13.60;99.90
43987;DHT22;29650;47.378;8.300;2022-09-12T01:57:57;13.70;99.90
43987;DHT22;29650;47.378;8.300;2022-09-12T02:00:25;13.70;99.90
43987;DHT22;29650;47.378;8.300;2022-09-12T02:02:57;13.60;99.90
43987;DHT22;29650;47.378;8.300;2022-09-12T02:05:31;13.30;99.90
43987;DHT22;29650;47.378;8.300;2022-09-12T02:08:02;13.20;99.90
43987;DHT22;29650;47.378;8.300;2022-09-12T02:10:35;13.20;99.90
43987;DHT22;29650;47.378;8.300;2022-09-12T02:13:09;13.20;99.90
43987;DHT22;29650;47.378;8.300;2022-09-12T02:15:43;13.20;99.90
43987;DHT22;29650;47.378;8.300;2022-09-12T02:18:15;13.20;99.90
43987;DHT22;29650;47.378;8.300;2022-09-12T02:20:46;13.20;99.90
43987;DHT22;29650;47.378;8.300;2022-09-12T02:23:16;13.20;99.90
43987;DHT22;29650;47.378;8.300;2022-09-12T02:25:47;13.20;99.90
43987;DHT22;29650;47.378;8.300;2022-09-12T02:28:15;13.20;99.90
43987;DHT22;29650;47.378;8.300;2022-09-12T02:30:51;13.30;99.90
43987;DHT22;29650;47.378;8.300;2022-09-12T02:33:26;13.40;99.90
43987;DHT22;29650;47.378;8.300;2022-09-12T02:36:05;13.40;99.90
43987;DHT22;29650;47.378;8.300;2022-09-12T02:38:41;13.40;99.90
43987;DHT22;29650;47.378;8.300;2022-09-12T02:41:10;13.30;99.90
43987;DHT22;29650;47.378;8.300;2022-09-12T02:43:37;13.20;99.90
43987;DHT22;29650;47.378;8.300;2022-09-12T02:46:07;13.10;99.90
43987;DHT22;29650;47.378;8.300;2022-09-12T02:48:39;13.10;99.90
43987;DHT22;29650;47.378;8.300;2022-09-12T02:51:07;13.10;99.90
43987;DHT22;29650;47.378;8.300;2022-09-12T02:53:35;13.00;99.90
43987;DHT22;29650;47.378;8.300;2022-09-12T02:56:04;13.20;99.90
43987;DHT22;29650;47.378;8.300;2022-09-12T02:58:33;13.80;99.90
43987;DHT22;29650;47.378;8.300;2022-09-12T03:01:06;14.20;99.90
43987;DHT22;29650;47.378;8.300;2022-09-12T03:03:52;13.80;99.90
43987;DHT22;29650;47.378;8.300;2022-09-12T03:06:29;13.40;99.90
43987;DHT22;29650;47.378;8.300;2022-09-12T03:09:03;13.20;99.90
43987;DHT22;29650;47.378;8.300;2022-09-12T03:11:50;13.10;99.90
43987;DHT22;29650;47.378;8.300;2022-09-12T03:14:30;13.20;99.90
43987;DHT22;29650;47.378;8.300;2022-09-12T03:17:06;13.20;99.90
43987;DHT22;29650;47.378;8.300;2022-09-12T03:19:49;13.10;99.90
43987;DHT22;29650;47.378;8.300;2022-09-12T03:22:22;13.10;99.90
43987;DHT22;29650;47.378;8.300;2022-09-12T03:24:57;13.00;99.90
43987;DHT22;29650;47.378;8.300;2022-09-12T03:27:32;12.90;99.90
43987;DHT22;29650;47.378;8.300;2022-09-12T03:30:01;12.80;99.90
43987;DHT22;29650;47.378;8.300;2022-09-12T03:32:46;12.70;99.90
43987;DHT22;29650;47.378;8.300;2022-09-12T03:35:17;12.70;99.90
43987;DHT22;29650;47.378;8.300;2022-09-12T03:37:45;12.60;99.90
43987;DHT22;29650;47.378;8.300;2022-09-12T03:40:13;12.60;99.90
43987;DHT22;29650;47.378;8.300;2022-09-12T03:42:40;12.60;99.90
43987;DHT22;29650;47.378;8.300;2022-09-12T03:45:08;12.70;99.90
43987;DHT22;29650;47.378;8.300;2022-09-12T03:47:38;12.70;99.90
43987;DHT22;29650;47.378;8.300;2022-09-12T03:50:06;12.80;99.90
43987;DHT22;29650;47.378;8.300;2022-09-12T03:52:35;12.90;99.90
43987;DHT22;29650;47.378;8.300;2022-09-12T03:55:03;12.70;99.90
43987;DHT22;29650;47.378;8.300;2022-09-12T03:57:30;12.80;99.90
43987;DHT22;29650;47.378;8.300;2022-09-12T03:59:57;12.90;99.90
43987;DHT22;29650;47.378;8.300;2022-09-12T04:02:23;12.80;99.90
43987;DHT22;29650;47.378;8.300;2022-09-12T04:04:50;12.80;99.90
43987;DHT22;29650;47.378;8.300;2022-09-12T04:07:17;12.80;99.90
43987;DHT22;29650;47.378;8.300;2022-09-12T04:09:46;12.70;99.90
43987;DHT22;29650;47.378;8.300;2022-09-12T04:12:12;12.60;99.90
43987;DHT22;29650;47.378;8.300;2022-09-12T04:14:39;12.60;99.90
43987;DHT22;29650;47.378;8.300;2022-09-12T04:17:06;12.50;99.90
43987;DHT22;29650;47.378;8.300;2022-09-12T04:19:33;12.40;99.90
43987;DHT22;29650;47.378;8.300;2022-09-12T04:22:00;12.40;99.90
43987;DHT22;29650;47.378;8.300;2022-09-12T04:24:27;12.30;99.90
43987;DHT22;29650;47.378;8.300;2022-09-12T04:26:56;12.30;99.90
43987;DHT22;29650;47.378;8.300;2022-09-12T04:29:23;12.30;99.90
43987;DHT22;29650;47.378;8.300;2022-09-12T04:31:50;12.30;99.90
43987;DHT22;29650;47.378;8.300;2022-09-12T04:34:16;12.20;99.90
43987;DHT22;29650;47.378;8.300;2022-09-12T04:36:44;12.20;99.90
43987;DHT22;29650;47.378;8.300;2022-09-12T04:39:10;12.10;99.90
43987;DHT22;29650;47.378;8.300;2022-09-12T04:41:39;12.00;99.90
43987;DHT22;29650;47.378;8.300;2022-09-12T04:44:11;12.10;99.90
43987;DHT22;29650;47.378;8.300;2022-09-12T04:46:40;12.20;99.90
43987;DHT22;29650;47.378;8.300;2022-09-12T04:49:07;12.20;99.90
43987;DHT22;29650;47.378;8.300;2022-09-12T04:51:35;12.30;99.90
43987;DHT22;29650;47.378;8.300;2022-09-12T04:54:05;12.30;99.90
43987;DHT22;29650;47.378;8.300;2022-09-12T04:56:35;12.20;99.90
43987;DHT22;29650;47.378;8.300;2022-09-12T04:59:02;12.20;99.90
43987;DHT22;29650;47.378;8.300;2022-09-12T05:01:31;12.10;99.90
43987;DHT22;29650;47.378;8.300;2022-09-12T05:03:58;12.10;99.90
43987;DHT22;29650;47.378;8.300;2022-09-12T05:06:27;12.10;99.90
43987;DHT22;29650;47.378;8.300;2022-09-12T05:08:55;12.10;99.90
43987;DHT22;29650;47.378;8.300;2022-09-12T05:11:24;12.20;99.90
43987;DHT22;29650;47.378;8.300;2022-09-12T05:13:51;12.20;99.90
43987;DHT22;29650;47.378;8.300;2022-09-12T05:16:19;12.30;99.90
43987;DHT22;29650;47.378;8.300;2022-09-12T05:18:48;12.40;99.90
43987;DHT22;29650;47.378;8.300;2022-09-12T05:21:17;12.50;99.90
43987;DHT22;29650;47.378;8.300;2022-09-12T05:23:45;12.40;99.90
43987;DHT22;29650;47.378;8.300;2022-09-12T05:26:14;12.60;99.90
43987;DHT22;29650;47.378;8.300;2022-09-12T05:28:42;12.60;99.90
43987;DHT22;29650;47.378;8.300;2022-09-12T05:31:11;12.70;99.90
43987;DHT22;29650;47.378;8.300;2022-09-12T05:33:39;12.70;99.90
43987;DHT22;29650;47.378;8.300;2022-09-12T05:36:11;12.90;99.90
43987;DHT22;29650;47.378;8.300;2022-09-12T05:38:38;12.80;99.90
43987;DHT22;29650;47.378;8.300;2022-09-12T05:41:06;12.90;99.90
43987;DHT22;29650;47.378;8.300;2022-09-12T05:43:35;12.90;99.90
43987;DHT22;29650;47.378;8.300;2022-09-12T05:46:03;12.90;99.90
43987;DHT22;29650;47.378;8.300;2022-09-12T05:48:32;12.90;99.90
43987;DHT22;29650;47.378;8.300;2022-09-12T05:51:01;13.00;99.90
43987;DHT22;29650;47.378;8.300;2022-09-12T05:53:30;12.90;99.90
43987;DHT22;29650;47.378;8.300;2022-09-12T05:56:08;12.90;99.90
43987;DHT22;29650;47.378;8.300;2022-09-12T05:58:36;12.70;99.90
43987;DHT22;29650;47.378;8.300;2022-09-12T06:01:05;12.80;99.90
43987;DHT22;29650;47.378;8.300;2022-09-12T06:03:33;12.80;99.90
43987;DHT22;29650;47.378;8.300;2022-09-12T06:06:01;12.90;99.90
43987;DHT22;29650;47.378;8.300;2022-09-12T06:08:31;13.10;99.90
43987;DHT22;29650;47.378;8.300;2022-09-12T06:10:59;13.00;99.90
43987;DHT22;29650;47.378;8.300;2022-09-12T06:13:26;13.10;99.90
43987;DHT22;29650;47.378;8.300;2022-09-12T06:15:53;13.00;99.90
43987;DHT22;29650;47.378;8.300;2022-09-12T06:18:20;13.00;99.90
43987;DHT22;29650;47.378;8.300;2022-09-12T06:20:47;12.90;99.90
43987;DHT22;29650;47.378;8.300;2022-09-12T06:23:14;12.90;99.90
43987;DHT22;29650;47.378;8.300;2022-09-12T06:25:51;13.10;99.90
43987;DHT22;29650;47.378;8.300;2022-09-12T06:28:18;13.20;99.90
43987;DHT22;29650;47.378;8.300;2022-09-12T06:30:45;12.90;99.90
43987;DHT22;29650;47.378;8.300;2022-09-12T06:33:13;12.80;99.90
43987;DHT22;29650;47.378;8.300;2022-09-12T06:35:40;12.80;99.90
43987;DHT22;29650;47.378;8.300;2022-09-12T06:38:07;13.00;99.90
43987;DHT22;29650;47.378;8.300;2022-09-12T06:40:34;13.00;99.90
43987;DHT22;29650;47.378;8.300;2022-09-12T06:43:10;13.10;99.90
43987;DHT22;29650;47.378;8.300;2022-09-12T06:45:38;13.10;99.90
43987;DHT22;29650;47.378;8.300;2022-09-12T06:48:05;13.10;99.90
43987;DHT22;29650;47.378;8.300;2022-09-12T06:50:32;13.10;99.90
43987;DHT22;29650;47.378;8.300;2022-09-12T06:52:59;13.30;99.90
43987;DHT22;29650;47.378;8.300;2022-09-12T06:55:25;13.50;99.90
43987;DHT22;29650;47.378;8.300;2022-09-12T06:57:53;13.50;99.90
43987;DHT22;29650;47.378;8.300;2022-09-12T07:00:22;13.70;99.90
43987;DHT22;29650;47.378;8.300;2022-09-12T07:02:53;13.70;99.90
43987;DHT22;29650;47.378;8.300;2022-09-12T07:05:20;13.70;99.90
43987;DHT22;29650;47.378;8.300;2022-09-12T07:07:47;13.90;99.90
43987;DHT22;29650;47.378;8.300;2022-09-12T07:10:14;14.00;99.90
43987;DHT22;29650;47.378;8.300;2022-09-12T07:12:41;13.80;99.90
43987;DHT22;29650;47.378;8.300;2022-09-12T07:15:09;13.90;99.90
43987;DHT22;29650;47.378;8.300;2022-09-12T07:17:37;13.90;99.90
43987;DHT22;29650;47.378;8.300;2022-09-12T07:20:05;14.10;99.90
43987;DHT22;29650;47.378;8.300;2022-09-12T07:22:32;13.90;99.90
43987;DHT22;29650;47.378;8.300;2022-09-12T07:24:59;13.80;99.90
43987;DHT22;29650;47.378;8.300;2022-09-12T07:27:27;13.60;99.90
43987;DHT22;29650;47.378;8.300;2022-09-12T07:29:54;13.70;99.90
43987;DHT22;29650;47.378;8.300;2022-09-12T07:32:21;13.70;99.90
43987;DHT22;29650;47.378;8.300;2022-09-12T07:34:50;13.90;99.90
43987;DHT22;29650;47.378;8.300;2022-09-12T07:37:16;13.90;99.90
43987;DHT22;29650;47.378;8.300;2022-09-12T07:39:43;14.10;99.90
43987;DHT22;29650;47.378;8.300;2022-09-12T07:42:11;14.30;99.90
43987;DHT22;29650;47.378;8.300;2022-09-12T07:44:38;14.50;99.90
43987;DHT22;29650;47.378;8.300;2022-09-12T07:47:05;14.20;99.90
43987;DHT22;29650;47.378;8.300;2022-09-12T07:49:32;14.30;99.90
43987;DHT22;29650;47.378;8.300;2022-09-12T07:52:02;14.20;99.90
43987;DHT22;29650;47.378;8.300;2022-09-12T07:54:29;14.30;99.90
43987;DHT22;29650;47.378;8.300;2022-09-12T07:56:57;14.60;99.90
43987;DHT22;29650;47.378;8.300;2022-09-12T07:59:24;14.90;99.90
43987;DHT22;29650;47.378;8.300;2022-09-12T08:01:52;15.20;99.90
43987;DHT22;29650;47.378;8.300;2022-09-12T08:04:19;15.30;99.90
43987;DHT22;29650;47.378;8.300;2022-09-12T08:06:46;15.40;99.90
43987;DHT22;29650;47.378;8.300;2022-09-12T08:09:15;15.60;99.90
43987;DHT22;29650;47.378;8.300;2022-09-12T08:11:42;15.40;99.90
43987;DHT22;29650;47.378;8.300;2022-09-12T08:14:09;15.50;99.90
43987;DHT22;29650;47.378;8.300;2022-09-12T08:16:36;15.70;99.90
43987;DHT22;29650;47.378;8.300;2022-09-12T08:19:03;15.80;99.90
43987;DHT22;29650;47.378;8.300;2022-09-12T08:21:32;15.90;99.90
43987;DHT22;29650;47.378;8.300;2022-09-12T08:24:02;15.70;99.90
43987;DHT22;29650;47.378;8.300;2022-09-12T08:26:30;16.00;99.90
43987;DHT22;29650;47.378;8.300;2022-09-12T08:28:58;16.10;99.90
43987;DHT22;29650;47.378;8.300;2022-09-12T08:31:26;16.40;99.90
43987;DHT22;29650;47.378;8.300;2022-09-12T08:33:54;16.40;99.90
43987;DHT22;29650;47.378;8.300;2022-09-12T08:36:23;16.60;99.90
43987;DHT22;29650;47.378;8.300;2022-09-12T08:38:53;16.60;99.90
43987;DHT22;29650;47.378;8.300;2022-09-12T08:41:25;16.60;99.90
43987;DHT22;29650;47.378;8.300;2022-09-12T08:52:51;17.10;99.90
43987;DHT22;29650;47.378;8.300;2022-09-12T08:55:30;17.20;99.90
43987;DHT22;29650;47.378;8.300;2022-09-12T08:57:57;17.20;99.90
43987;DHT22;29650;47.378;8.300;2022-09-12T09:00:34;17.30;99.90
43987;DHT22;29650;47.378;8.300;2022-09-12T09:03:48;17.20;99.90
43987;DHT22;29650;47.378;8.300;2022-09-12T09:06:30;17.30;99.90
43987;DHT22;29650;47.378;8.300;2022-09-12T09:09:05;17.40;99.90
43987;DHT22;29650;47.378;8.300;2022-09-12T09:11:46;17.60;99.90
43987;DHT22;29650;47.378;8.300;2022-09-12T09:17:18;18.00;99.90
43987;DHT22;29650;47.378;8.300;2022-09-12T09:19:54;18.20;99.90
43987;DHT22;29650;47.378;8.300;2022-09-12T09:22:31;18.20;99.90
43987;DHT22;29650;47.378;8.300;2022-09-12T09:25:05;18.30;99.90
43987;DHT22;29650;47.378;8.300;2022-09-12T09:27:35;18.10;99.90
43987;DHT22;29650;47.378;8.300;2022-09-12T09:30:12;18.30;99.90
43987;DHT22;29650;47.378;8.300;2022-09-12T09:32:41;18.40;99.90
43987;DHT22;29650;47.378;8.300;2022-09-12T09:35:16;18.70;99.90
43987;DHT22;29650;47.378;8.300;2022-09-12T09:37:55;18.60;99.10
43987;DHT22;29650;47.378;8.300;2022-09-12T09:40:28;18.70;98.40
43987;DHT22;29650;47.378;8.300;2022-09-12T09:43:01;19.00;98.50
43987;DHT22;29650;47.378;8.300;2022-09-12T09:45:30;19.00;98.60
43987;DHT22;29650;47.378;8.300;2022-09-12T09:48:00;19.10;97.90
43987;DHT22;29650;47.378;8.300;2022-09-12T09:50:30;19.40;99.00
43987;DHT22;29650;47.378;8.300;2022-09-12T09:52:59;19.30;97.10
43987;DHT22;29650;47.378;8.300;2022-09-12T09:55:37;19.30;97.90
43987;DHT22;29650;47.378;8.300;2022-09-12T09:58:04;19.40;96.40
43987;DHT22;29650;47.378;8.300;2022-09-12T10:00:32;19.50;97.60
43987;DHT22;29650;47.378;8.300;2022-09-12T10:05:50;19.40;97.50
43987;DHT22;29650;47.378;8.300;2022-09-12T10:08:22;19.60;98.00
43987;DHT22;29650;47.378;8.300;2022-09-12T10:10:56;19.70;97.40
43987;DHT22;29650;47.378;8.300;2022-09-12T10:13:29;19.60;98.40
43987;DHT22;29650;47.378;8.300;2022-09-12T10:15:59;19.80;96.80
43987;DHT22;29650;47.378;8.300;2022-09-12T10:18:35;19.80;95.60
43987;DHT22;29650;47.378;8.300;2022-09-12T10:21:13;19.90;96.50
43987;DHT22;29650;47.378;8.300;2022-09-12T10:23:41;19.80;95.80
43987;DHT22;29650;47.378;8.300;2022-09-12T10:26:10;19.80;97.20
43987;DHT22;29650;47.378;8.300;2022-09-12T10:28:39;19.90;97.90
43987;DHT22;29650;47.378;8.300;2022-09-12T10:31:12;20.00;95.70
43987;DHT22;29650;47.378;8.300;2022-09-12T10:33:41;20.00;95.80
43987;DHT22;29650;47.378;8.300;2022-09-12T10:36:11;20.60;97.90
43987;DHT22;29650;47.378;8.300;2022-09-12T10:38:48;20.40;95.30
43987;DHT22;29650;47.378;8.300;2022-09-12T10:41:15;20.40;95.40
43987;DHT22;29650;47.378;8.300;2022-09-12T10:43:42;20.30;96.00
43987;DHT22;29650;47.378;8.300;2022-09-12T10:46:27;20.60;95.90
43987;DHT22;29650;47.378;8.300;2022-09-12T10:49:28;20.80;95.00
43987;DHT22;29650;47.378;8.300;2022-09-12T10:52:15;20.90;94.90
43987;DHT22;29650;47.378;8.300;2022-09-12T10:54:42;20.80;94.30
43987;DHT22;29650;47.378;8.300;2022-09-12T10:57:42;20.70;95.20
43987;DHT22;29650;47.378;8.300;2022-09-12T11:00:14;20.70;94.60
43987;DHT22;29650;47.378;8.300;2022-09-12T11:02:50;21.00;95.30
43987;DHT22;29650;47.378;8.300;2022-09-12T11:08:25;21.00;95.90
43987;DHT22;29650;47.378;8.300;2022-09-12T11:11:00;21.10;94.70
43987;DHT22;29650;47.378;8.300;2022-09-12T11:13:54;21.40;94.50
43987;DHT22;29650;47.378;8.300;2022-09-12T11:16:29;21.20;95.10
43987;DHT22;29650;47.378;8.300;2022-09-12T11:19:19;21.30;95.20
43987;DHT22;29650;47.378;8.300;2022-09-12T11:22:12;21.40;93.00
43987;DHT22;29650;47.378;8.300;2022-09-12T11:24:51;21.40;92.30
43987;DHT22;29650;47.378;8.300;2022-09-12T11:27:34;21.40;91.60
43987;DHT22;29650;47.378;8.300;2022-09-12T11:30:09;21.30;91.90
43987;DHT22;29650;47.378;8.300;2022-09-12T11:32:56;21.60;91.80
43987;DHT22;29650;47.378;8.300;2022-09-12T11:35:27;21.80;92.70
43987;DHT22;29650;47.378;8.300;2022-09-12T11:38:31;21.90;92.70
43987;DHT22;29650;47.378;8.300;2022-09-12T11:41:04;21.80;93.00
43987;DHT22;29650;47.378;8.300;2022-09-12T11:43:37;22.10;91.70
43987;DHT22;29650;47.378;8.300;2022-09-12T11:46:13;22.20;91.80
43987;DHT22;29650;47.378;8.300;2022-09-12T11:48:46;22.10;90.80
43987;DHT22;29650;47.378;8.300;2022-09-12T11:51:19;22.30;91.00
43987;DHT22;29650;47.378;8.300;2022-09-12T11:54:01;22.40;90.50
43987;DHT22;29650;47.378;8.300;2022-09-12T11:56:30;22.30;92.50
43987;DHT22;29650;47.378;8.300;2022-09-12T11:59:01;22.20;92.00
43987;DHT22;29650;47.378;8.300;2022-09-12T12:01:33;22.30;90.80
43987;DHT22;29650;47.378;8.300;2022-09-12T12:04:07;22.30;90.40
43987;DHT22;29650;47.378;8.300;2022-09-12T12:06:45;22.10;89.90
43987;DHT22;29650;47.378;8.300;2022-09-12T12:09:13;22.50;89.70
43987;DHT22;29650;47.378;8.300;2022-09-12T12:11:45;22.80;88.80
43987;DHT22;29650;47.378;8.300;2022-09-12T12:14:16;23.00;90.20
43987;DHT22;29650;47.378;8.300;2022-09-12T12:16:44;23.20;87.50
43987;DHT22;29650;47.378;8.300;2022-09-12T12:19:30;23.20;90.70
43987;DHT22;29650;47.378;8.300;2022-09-12T12:22:06;23.10;90.00
43987;DHT22;29650;47.378;8.300;2022-09-12T12:24:33;22.90;88.60
43987;DHT22;29650;47.378;8.300;2022-09-12T12:27:04;22.90;88.70
43987;DHT22;29650;47.378;8.300;2022-09-12T12:29:48;23.10;88.30
43987;DHT22;29650;47.378;8.300;2022-09-12T12:32:23;23.10;84.90
43987;DHT22;29650;47.378;8.300;2022-09-12T12:37:51;23.10;86.30
43987;DHT22;29650;47.378;8.300;2022-09-12T12:40:24;23.30;88.10
43987;DHT22;29650;47.378;8.300;2022-09-12T12:46:09;23.50;81.40
43987;DHT22;29650;47.378;8.300;2022-09-12T12:49:02;23.60;75.90
43987;DHT22;29650;47.378;8.300;2022-09-12T12:51:37;23.40;75.80
43987;DHT22;29650;47.378;8.300;2022-09-12T12:54:26;23.70;76.30
43987;DHT22;29650;47.378;8.300;2022-09-12T12:57:04;23.80;73.20
43987;DHT22;29650;47.378;8.300;2022-09-12T12:59:33;23.80;72.30
43987;DHT22;29650;47.378;8.300;2022-09-12T13:02:00;23.70;74.70
43987;DHT22;29650;47.378;8.300;2022-09-12T13:04:29;23.60;74.80
43987;DHT22;29650;47.378;8.300;2022-09-12T13:07:02;23.90;76.90
43987;DHT22;29650;47.378;8.300;2022-09-12T13:09:32;24.20;77.80
43987;DHT22;29650;47.378;8.300;2022-09-12T13:12:02;24.40;78.00
43987;DHT22;29650;47.378;8.300;2022-09-12T13:14:47;24.40;75.50
43987;DHT22;29650;47.378;8.300;2022-09-12T13:17:19;24.30;75.30
43987;DHT22;29650;47.378;8.300;2022-09-12T13:19:48;24.20;74.70
43987;DHT22;29650;47.378;8.300;2022-09-12T13:22:15;24.50;76.40
43987;DHT22;29650;47.378;8.300;2022-09-12T13:24:43;24.70;74.70
43987;DHT22;29650;47.378;8.300;2022-09-12T13:27:17;24.50;72.10
43987;DHT22;29650;47.378;8.300;2022-09-12T13:29:45;24.50;73.00
43987;DHT22;29650;47.378;8.300;2022-09-12T13:32:13;24.70;75.50
43987;DHT22;29650;47.378;8.300;2022-09-12T13:34:51;24.50;73.80
43987;DHT22;29650;47.378;8.300;2022-09-12T13:37:37;24.50;72.40
43987;DHT22;29650;47.378;8.300;2022-09-12T13:43:10;24.80;72.40
43987;DHT22;29650;47.378;8.300;2022-09-12T13:45:42;24.50;74.20
43987;DHT22;29650;47.378;8.300;2022-09-12T13:48:13;24.20;74.40
43987;DHT22;29650;47.378;8.300;2022-09-12T13:50:48;24.20;76.00
43987;DHT22;29650;47.378;8.300;2022-09-12T13:53:19;24.30;73.00
43987;DHT22;29650;47.378;8.300;2022-09-12T13:55:50;24.40;70.80
43987;DHT22;29650;47.378;8.300;2022-09-12T13:58:22;24.60;70.50
43987;DHT22;29650;47.378;8.300;2022-09-12T14:01:06;24.60;72.50
43987;DHT22;29650;47.378;8.300;2022-09-12T14:03:38;24.80;69.70
43987;DHT22;29650;47.378;8.300;2022-09-12T14:06:23;24.50;68.80
43987;DHT22;29650;47.378;8.300;2022-09-12T14:08:50;24.70;69.70
43987;DHT22;29650;47.378;8.300;2022-09-12T14:11:23;25.10;70.30
43987;DHT22;29650;47.378;8.300;2022-09-12T14:13:51;25.30;67.70
43987;DHT22;29650;47.378;8.300;2022-09-12T14:16:22;25.30;69.40
43987;DHT22;29650;47.378;8.300;2022-09-12T14:18:52;25.30;67.10
43987;DHT22;29650;47.378;8.300;2022-09-12T14:21:32;25.40;67.40
43987;DHT22;29650;47.378;8.300;2022-09-12T14:24:00;25.30;66.40
43987;DHT22;29650;47.378;8.300;2022-09-12T14:26:32;25.20;66.80
43987;DHT22;29650;47.378;8.300;2022-09-12T14:29:00;25.20;67.70
43987;DHT22;29650;47.378;8.300;2022-09-12T14:31:31;25.10;69.60
43987;DHT22;29650;47.378;8.300;2022-09-12T14:34:09;25.30;66.10
43987;DHT22;29650;47.378;8.300;2022-09-12T14:36:41;25.20;65.40
43987;DHT22;29650;47.378;8.300;2022-09-12T14:39:20;25.40;67.30
43987;DHT22;29650;47.378;8.300;2022-09-12T14:41:49;25.30;65.50
43987;DHT22;29650;47.378;8.300;2022-09-12T14:44:20;25.30;64.50
43987;DHT22;29650;47.378;8.300;2022-09-12T14:46:50;25.20;67.10
43987;DHT22;29650;47.378;8.300;2022-09-12T14:49:19;25.20;67.70
43987;DHT22;29650;47.378;8.300;2022-09-12T14:51:53;25.30;64.20
43987;DHT22;29650;47.378;8.300;2022-09-12T14:54:37;25.50;66.30
43987;DHT22;29650;47.378;8.300;2022-09-12T14:57:31;25.60;64.90
43987;DHT22;29650;47.378;8.300;2022-09-12T15:00:26;25.60;67.20
43987;DHT22;29650;47.378;8.300;2022-09-12T15:02:54;25.50;68.90
43987;DHT22;29650;47.378;8.300;2022-09-12T15:05:23;25.30;63.30
43987;DHT22;29650;47.378;8.300;2022-09-12T15:07:53;25.50;62.80
43987;DHT22;29650;47.378;8.300;2022-09-12T15:10:24;25.70;64.20
43987;DHT22;29650;47.378;8.300;2022-09-12T15:13:08;26.00;62.90
43987;DHT22;29650;47.378;8.300;2022-09-12T15:15:40;26.00;62.90
43987;DHT22;29650;47.378;8.300;2022-09-12T15:18:08;25.80;63.60
43987;DHT22;29650;47.378;8.300;2022-09-12T15:20:36;25.90;67.30
43987;DHT22;29650;47.378;8.300;2022-09-12T15:23:05;25.90;65.40
43987;DHT22;29650;47.378;8.300;2022-09-12T15:25:32;25.80;65.00
43987;DHT22;29650;47.378;8.300;2022-09-12T15:27:59;25.70;63.80
43987;DHT22;29650;47.378;8.300;2022-09-12T15:30:26;25.60;64.70
43987;DHT22;29650;47.378;8.300;2022-09-12T15:32:53;25.50;63.10
43987;DHT22;29650;47.378;8.300;2022-09-12T15:35:23;25.60;61.60
43987;DHT22;29650;47.378;8.300;2022-09-12T15:37:50;25.60;62.40
43987;DHT22;29650;47.378;8.300;2022-09-12T15:40:17;25.60;61.70
43987;DHT22;29650;47.378;8.300;2022-09-12T15:42:44;25.90;61.30
43987;DHT22;29650;47.378;8.300;2022-09-12T15:45:16;26.00;62.00
43987;DHT22;29650;47.378;8.300;2022-09-12T15:47:44;26.00;62.30
43987;DHT22;29650;47.378;8.300;2022-09-12T15:50:11;26.00;62.10
43987;DHT22;29650;47.378;8.300;2022-09-12T15:52:40;25.90;61.80
43987;DHT22;29650;47.378;8.300;2022-09-12T15:55:13;26.10;61.50
43987;DHT22;29650;47.378;8.300;2022-09-12T15:57:42;26.10;62.10
43987;DHT22;29650;47.378;8.300;2022-09-12T16:00:11;26.10;61.10
43987;DHT22;29650;47.378;8.300;2022-09-12T16:02:38;26.20;59.90
43987;DHT22;29650;47.378;8.300;2022-09-12T16:05:12;26.30;61.60
43987;DHT22;29650;47.378;8.300;2022-09-12T16:07:40;26.30;60.30
43987;DHT22;29650;47.378;8.300;2022-09-12T16:10:14;26.10;61.40
43987;DHT22;29650;47.378;8.300;2022-09-12T16:12:41;26.10;61.80
43987;DHT22;29650;47.378;8.300;2022-09-12T16:15:12;26.00;60.80
43987;DHT22;29650;47.378;8.300;2022-09-12T16:17:39;26.10;61.00
43987;DHT22;29650;47.378;8.300;2022-09-12T16:20:07;26.30;59.10
43987;DHT22;29650;47.378;8.300;2022-09-12T16:22:34;26.30;60.60
43987;DHT22;29650;47.378;8.300;2022-09-12T16:25:03;26.30;60.00
43987;DHT22;29650;47.378;8.300;2022-09-12T16:27:31;26.40;59.20
43987;DHT22;29650;47.378;8.300;2022-09-12T16:29:58;26.60;59.20